M Y Suncoco — SY7908 — position and weather

sailwx.info

Track history (hours):
 
Tides and Currents Weather Stations Pressure Air Temp Water Temp Dewpoint Dewpoint Depression Visibility Wind Speed Wind Dir Waves Ship Positions

M Y Suncoco

Last reported at 2016-Aug-27 14:17 UTC. Time now 2016-Aug-27 16:48 UTC.
Position N 37°23' E 023°15'.

Length 32 m; draft 2.8 m.

Type: Other ship. MMSI: 239112700.

Date/timePositionNaut miles runAvg speedWind from/ knotsBaromVisibWave heightAir tempDewpointWater temp
2016-Aug-27 14:17N 37°23' E 023°15'5 1.2
2016-Aug-27 10:26N 37°21' E 023°21'7 7.4
2016-Aug-27 09:34N 37°24' E 023°28'6 5.8
2016-Aug-27 08:33N 37°30' E 023°28'0 0.4
2016-Aug-27 07:31N 37°30' E 023°27'0 0.0
2016-Aug-27 06:31N 37°30' E 023°27'0 0.0
2016-Aug-27 04:31N 37°30' E 023°27'0 0.0
2016-Aug-27 03:19N 37°30' E 023°27'0 0.0
2016-Aug-27 02:25N 37°30' E 023°27'0 0.0
2016-Aug-27 01:13N 37°30' E 023°27'0 0.0
2016-Aug-27 00:28N 37°30' E 023°27'0 0.0
2016-Aug-26 23:31N 37°30' E 023°27'0 0.0
2016-Aug-26 22:31N 37°30' E 023°27'0 0.0
2016-Aug-26 21:31N 37°30' E 023°27'0 0.0
2016-Aug-26 20:31N 37°30' E 023°27'0 0.0
2016-Aug-26 19:31N 37°30' E 023°27'0 0.0
2016-Aug-26 18:31N 37°30' E 023°27'0 0.0
2016-Aug-26 17:31N 37°30' E 023°27'0 0.0
2016-Aug-26 16:31N 37°30' E 023°27'0 0.0
2016-Aug-26 15:31N 37°30' E 023°27'0 0.0
2016-Aug-26 14:31N 37°30' E 023°27'8 7.7
2016-Aug-26 13:32N 37°37' E 023°25'3 0.1
2016-Aug-25 08:33N 37°40' E 023°23'1110.9
2016-Aug-25 07:34N 37°43' E 023°36'10 9.3
2016-Aug-25 06:32N 37°48' E 023°46'  
2016-Aug-20 15:20N 37°48' E 023°46'0 0.0
2016-Aug-20 14:32N 37°48' E 023°46'5 5.1
2016-Aug-20 13:34N 37°47' E 023°40'1110.9
2016-Aug-20 12:33N 37°47' E 023°26'2 1.7
2016-Aug-20 11:23N 37°45' E 023°26'1 0.6
2016-Aug-20 09:34N 37°45' E 023°24'5 0.7
2016-Aug-20 02:20N 37°41' E 023°19'810.8
2016-Aug-20 01:33N 37°48' E 023°13'1111.1
2016-Aug-20 00:33N 37°54' E 023°01'  
Track history (hours):
 
Tides and Currents Weather Stations Pressure Air Temp Water Temp Dewpoint Dewpoint Depression Visibility Wind Speed Wind Dir Waves Ship Positions

M Y Suncoco

Last reported at 2016-Aug-27 14:17 UTC. Time now 2016-Aug-27 16:48 UTC.
Position N 37°23' E 023°15'.

Length 32 m; draft 2.8 m.

Type: Other ship. MMSI: 239112700.

Date/timePositionNaut miles runAvg speedWind from/ knotsBaromVisibWave heightAir tempDewpointWater temp
2016-Aug-27 14:17N 37°23' E 023°15'5 1.2
2016-Aug-27 10:26N 37°21' E 023°21'7 7.4
2016-Aug-27 09:34N 37°24' E 023°28'6 5.8
2016-Aug-27 08:33N 37°30' E 023°28'0 0.4
2016-Aug-27 07:31N 37°30' E 023°27'0 0.0
2016-Aug-27 06:31N 37°30' E 023°27'0 0.0
2016-Aug-27 04:31N 37°30' E 023°27'0 0.0
2016-Aug-27 03:19N 37°30' E 023°27'0 0.0
2016-Aug-27 02:25N 37°30' E 023°27'0 0.0
2016-Aug-27 01:13N 37°30' E 023°27'0 0.0
2016-Aug-27 00:28N 37°30' E 023°27'0 0.0
2016-Aug-26 23:31N 37°30' E 023°27'0 0.0
2016-Aug-26 22:31N 37°30' E 023°27'0 0.0
2016-Aug-26 21:31N 37°30' E 023°27'0 0.0
2016-Aug-26 20:31N 37°30' E 023°27'0 0.0
2016-Aug-26 19:31N 37°30' E 023°27'0 0.0
2016-Aug-26 18:31N 37°30' E 023°27'0 0.0
2016-Aug-26 17:31N 37°30' E 023°27'0 0.0
2016-Aug-26 16:31N 37°30' E 023°27'0 0.0
2016-Aug-26 15:31N 37°30' E 023°27'0 0.0
2016-Aug-26 14:31N 37°30' E 023°27'8 7.7
2016-Aug-26 13:32N 37°37' E 023°25'3 0.1
2016-Aug-25 08:33N 37°40' E 023°23'1110.9
2016-Aug-25 07:34N 37°43' E 023°36'10 9.3
2016-Aug-25 06:32N 37°48' E 023°46'  
2016-Aug-20 15:20N 37°48' E 023°46'0 0.0
2016-Aug-20 14:32N 37°48' E 023°46'5 5.1
2016-Aug-20 13:34N 37°47' E 023°40'1110.9
2016-Aug-20 12:33N 37°47' E 023°26'2 1.7
2016-Aug-20 11:23N 37°45' E 023°26'1 0.6
2016-Aug-20 09:34N 37°45' E 023°24'5 0.7
2016-Aug-20 02:20N 37°41' E 023°19'810.8
2016-Aug-20 01:33N 37°48' E 023°13'1111.1
2016-Aug-20 00:33N 37°54' E 023°01'  

Dump ship's entire track history